createdAt,value
2022-09-27T00:02:01.856Z,34.58
2022-09-27T00:04:30.065Z,34.68
2022-09-27T00:06:58.676Z,34.88
2022-09-27T00:09:27.329Z,35.02
2022-09-27T00:11:56.853Z,34.68
2022-09-27T00:14:25.166Z,35.13
2022-09-27T00:16:53.210Z,35.08
2022-09-27T00:19:23.921Z,35.02
2022-09-27T00:21:52.496Z,35.28
2022-09-27T00:24:22.386Z,35.29
2022-09-27T00:26:51.103Z,35.24
2022-09-27T00:29:21.231Z,35.03
2022-09-27T00:31:49.560Z,35.45
2022-09-27T00:34:21.192Z,35.45
2022-09-27T00:36:49.841Z,35.90
2022-09-27T00:39:18.230Z,35.68
2022-09-27T00:41:48.021Z,35.57
2022-09-27T00:44:51.227Z,34.37
2022-09-27T00:47:22.988Z,35.05
2022-09-27T00:49:53.558Z,35.50
2022-09-27T00:52:25.551Z,35.72
2022-09-27T00:54:56.359Z,35.64
2022-09-27T00:57:24.754Z,36.02
2022-09-27T00:59:59.323Z,35.40
2022-09-27T01:02:27.956Z,35.87
2022-09-27T01:04:56.737Z,35.77
2022-09-27T01:07:24.906Z,35.95
2022-09-27T01:09:53.098Z,35.62
2022-09-27T01:12:26.960Z,35.38
2022-09-27T01:15:08.302Z,34.89
2022-09-27T01:17:45.697Z,34.98
2022-09-27T01:20:31.383Z,34.84
2022-09-27T01:23:13.898Z,34.70
2022-09-27T01:25:51.722Z,35.19
2022-09-27T01:28:26.131Z,35.30
2022-09-27T01:31:01.426Z,35.48
2022-09-27T01:33:45.124Z,35.44
2022-09-27T01:36:23.162Z,35.59
2022-09-27T01:39:00.078Z,35.64
2022-09-27T01:41:34.903Z,35.72
2022-09-27T01:44:08.477Z,36.06
2022-09-27T01:46:41.329Z,36.13
2022-09-27T01:49:12.913Z,36.52
2022-09-27T01:51:44.529Z,36.58
2022-09-27T01:54:14.048Z,35.81
2022-09-27T01:56:45.329Z,37.19
2022-09-27T01:59:16.982Z,37.37
2022-09-27T02:01:49.067Z,36.69
2022-09-27T02:04:22.286Z,36.86
2022-09-27T02:06:54.535Z,37.11
2022-09-27T02:09:26.389Z,36.73
2022-09-27T02:11:58.679Z,36.51
2022-09-27T02:14:30.455Z,37.10
2022-09-27T02:17:01.656Z,37.49
2022-09-27T02:19:37.497Z,37.00
2022-09-27T02:22:12.201Z,37.23
2022-09-27T02:24:43.793Z,37.31
2022-09-27T02:27:14.836Z,37.28
2022-09-27T02:29:47.371Z,37.01
2022-09-27T02:32:18.874Z,37.27
2022-09-27T02:34:48.303Z,37.15
2022-09-27T02:37:16.423Z,37.46
2022-09-27T02:39:45.069Z,37.34
2022-09-27T02:42:14.024Z,37.40
2022-09-27T02:44:42.834Z,37.38
2022-09-27T02:47:37.928Z,37.02
2022-09-27T02:50:26.247Z,36.86
2022-09-27T02:53:01.505Z,36.91
2022-09-27T02:55:40.122Z,37.14
2022-09-27T02:58:14.370Z,37.49
2022-09-27T03:00:47.465Z,37.55
2022-09-27T03:03:19.861Z,37.38
2022-09-27T03:05:53.769Z,37.01
2022-09-27T03:08:22.644Z,37.85
2022-09-27T03:10:51.039Z,38.02
2022-09-27T03:13:19.235Z,37.66
2022-09-27T03:15:48.272Z,37.90
2022-09-27T03:18:16.498Z,38.13
2022-09-27T03:20:44.653Z,38.33
2022-09-27T03:23:14.491Z,38.15
2022-09-27T03:25:42.818Z,38.24
2022-09-27T03:28:10.862Z,38.32
2022-09-27T03:30:39.419Z,38.21
2022-09-27T03:33:09.275Z,38.04
2022-09-27T03:35:38.011Z,38.01
2022-09-27T03:38:07.537Z,38.29
2022-09-27T03:40:37.194Z,37.69
2022-09-27T03:43:05.335Z,38.04
2022-09-27T03:45:33.689Z,38.05
2022-09-27T03:48:02.554Z,38.14
2022-09-27T03:50:30.672Z,38.29
2022-09-27T03:52:59.038Z,38.16
2022-09-27T03:55:27.265Z,38.31
2022-09-27T03:57:56.669Z,38.16
2022-09-27T04:00:32.844Z,38.00
2022-09-27T04:03:01.149Z,38.26
2022-09-27T04:05:30.537Z,38.36
2022-09-27T04:07:59.007Z,38.44
2022-09-27T04:10:27.344Z,38.63
2022-09-27T04:12:57.444Z,37.79
2022-09-27T04:15:25.559Z,37.95
2022-09-27T04:17:53.782Z,37.94
2022-09-27T04:20:22.192Z,38.12
2022-09-27T04:22:52.174Z,38.46
2022-09-27T04:25:20.355Z,38.41
2022-09-27T04:27:52.111Z,38.74
2022-09-27T04:30:22.273Z,38.00
2022-09-27T04:32:50.593Z,38.96
2022-09-27T04:35:36.865Z,38.76
2022-09-27T04:38:05.207Z,38.40
2022-09-27T04:40:35.654Z,38.28
2022-09-27T04:43:04.570Z,38.60
2022-09-27T04:45:34.676Z,38.52
2022-09-27T04:48:03.165Z,38.56
2022-09-27T04:50:35.831Z,38.54
2022-09-27T04:53:05.050Z,38.46
2022-09-27T04:55:33.326Z,38.31
2022-09-27T04:58:02.087Z,38.38
2022-09-27T05:00:30.448Z,38.15
2022-09-27T05:03:00.150Z,37.52
2022-09-27T05:05:28.219Z,37.76
2022-09-27T05:07:56.590Z,36.89
2022-09-27T05:10:24.785Z,36.50
2022-09-27T05:12:52.901Z,36.29
2022-09-27T05:15:21.122Z,35.20
2022-09-27T05:17:52.270Z,33.63
2022-09-27T05:20:21.781Z,32.21
2022-09-27T05:22:50.411Z,31.90
2022-09-27T05:25:19.130Z,31.01
2022-09-27T05:27:47.862Z,30.45
2022-09-27T05:30:16.335Z,30.15
2022-09-27T05:32:46.828Z,29.51
2022-09-27T05:35:15.042Z,28.92
2022-09-27T05:37:45.164Z,28.56
2022-09-27T05:40:36.497Z,28.79
2022-09-27T05:43:01.486Z,29.19
2022-09-27T05:45:29.616Z,29.92
2022-09-27T05:47:58.807Z,28.71
2022-09-27T05:50:28.231Z,27.09
2022-09-27T05:52:57.961Z,26.40
2022-09-27T05:55:26.132Z,26.90
2022-09-27T05:57:58.231Z,26.52
2022-09-27T06:00:27.143Z,26.65
2022-09-27T06:02:57.244Z,26.56
2022-09-27T06:05:26.527Z,26.83
2022-09-27T06:08:01.443Z,26.70
2022-09-27T06:10:30.868Z,27.05
2022-09-27T06:13:02.596Z,26.41
2022-09-27T06:15:32.341Z,26.95
2022-09-27T06:18:05.157Z,26.36
2022-09-27T06:20:33.895Z,26.89
2022-09-27T06:23:08.707Z,26.83
2022-09-27T06:25:37.579Z,27.38
2022-09-27T06:28:06.653Z,27.59
2022-09-27T06:30:35.249Z,28.10
2022-09-27T06:33:04.486Z,28.21
2022-09-27T06:35:33.257Z,28.45
2022-09-27T06:38:04.913Z,28.14
2022-09-27T06:40:35.477Z,28.38
2022-09-27T06:43:04.886Z,28.21
2022-09-27T06:45:34.354Z,27.43
2022-09-27T06:48:03.423Z,26.27
2022-09-27T06:50:32.918Z,26.06
2022-09-27T06:53:01.264Z,26.39
2022-09-27T06:55:29.839Z,26.23
2022-09-27T06:58:18.449Z,26.27
2022-09-27T07:00:47.977Z,26.51
2022-09-27T07:03:16.487Z,25.83
2022-09-27T07:05:45.016Z,25.35
2022-09-27T07:08:15.580Z,25.08
2022-09-27T07:10:43.981Z,23.78
2022-09-27T07:13:13.688Z,22.68
2022-09-27T07:15:43.248Z,21.90
2022-09-27T07:18:12.098Z,21.52
2022-09-27T07:20:40.435Z,20.60
2022-09-27T07:23:11.357Z,20.13
2022-09-27T07:25:40.614Z,19.84
2022-09-27T07:28:11.849Z,19.50
2022-09-27T07:30:41.715Z,19.83
2022-09-27T07:33:10.259Z,20.32
2022-09-27T07:35:41.154Z,20.48
2022-09-27T07:38:12.418Z,21.28
2022-09-27T07:40:41.716Z,21.47
2022-09-27T07:43:12.656Z,21.54
2022-09-27T07:45:42.565Z,20.95
2022-09-27T07:48:15.337Z,19.80
2022-09-27T07:50:44.547Z,18.99
2022-09-27T07:53:14.365Z,18.28
2022-09-27T07:55:43.051Z,18.58
2022-09-27T07:58:13.912Z,17.97
2022-09-27T08:00:44.415Z,18.41
2022-09-27T08:03:17.251Z,18.54
2022-09-27T08:05:50.052Z,17.37
2022-09-27T08:08:19.226Z,17.11
2022-09-27T08:10:48.056Z,17.07
2022-09-27T08:13:18.160Z,16.15
2022-09-27T08:15:48.868Z,15.06
2022-09-27T08:18:17.778Z,14.53
2022-09-27T08:20:47.185Z,13.96
2022-09-27T08:23:15.603Z,14.78
2022-09-27T08:25:44.156Z,15.89
2022-09-27T08:28:12.489Z,16.50
2022-09-27T08:30:41.038Z,16.89
2022-09-27T08:33:11.310Z,17.12
2022-09-27T08:35:39.609Z,17.88
2022-09-27T08:38:08.039Z,17.13
2022-09-27T08:40:47.178Z,16.96
2022-09-27T08:43:21.868Z,17.17
2022-09-27T08:46:00.341Z,18.09
2022-09-27T08:48:31.265Z,19.38
2022-09-27T08:51:00.122Z,20.33
2022-09-27T08:53:32.026Z,20.49
2022-09-27T08:56:04.037Z,20.26
2022-09-27T08:58:33.870Z,20.14
2022-09-27T09:01:03.786Z,20.46
2022-09-27T09:03:36.563Z,20.04
2022-09-27T09:06:12.460Z,20.24
2022-09-27T09:08:50.701Z,20.57
2022-09-27T09:11:46.499Z,20.13
2022-09-27T09:14:30.341Z,19.38
2022-09-27T09:17:07.056Z,18.88
2022-09-27T09:19:47.645Z,19.34
2022-09-27T09:22:29.822Z,19.53
2022-09-27T09:25:09.277Z,19.65
2022-09-27T09:27:42.563Z,19.72
2022-09-27T09:30:21.391Z,19.86
2022-09-27T09:33:01.670Z,20.31
2022-09-27T09:35:35.828Z,21.01
2022-09-27T09:38:10.545Z,20.94
2022-09-27T09:40:42.536Z,20.20
2022-09-27T09:43:17.483Z,19.32
2022-09-27T09:45:48.582Z,18.81
2022-09-27T09:48:18.385Z,17.91
2022-09-27T09:50:49.788Z,18.07
2022-09-27T09:53:20.637Z,17.19
2022-09-27T09:55:53.915Z,17.35
2022-09-27T09:58:25.879Z,18.04
2022-09-27T10:00:57.520Z,19.10
2022-09-27T10:03:25.874Z,19.61
2022-09-27T10:05:56.807Z,19.93
2022-09-27T10:08:25.755Z,20.10
2022-09-27T10:10:54.144Z,20.20
2022-09-27T10:13:23.288Z,20.28
2022-09-27T10:15:56.771Z,20.26
2022-09-27T10:18:26.567Z,20.31
2022-09-27T10:20:58.592Z,19.71
2022-09-27T10:23:27.218Z,19.68
2022-09-27T10:25:56.827Z,19.55
2022-09-27T10:28:34.339Z,19.19
2022-09-27T10:31:04.724Z,19.10
2022-09-27T10:33:33.717Z,19.37
2022-09-27T10:36:04.035Z,17.56
2022-09-27T10:38:34.247Z,16.50
2022-09-27T10:41:18.719Z,15.80
2022-09-27T10:43:47.104Z,14.96
2022-09-27T10:46:22.149Z,15.04
2022-09-27T10:48:52.097Z,15.81
2022-09-27T10:51:26.991Z,15.54
2022-09-27T10:53:58.861Z,15.91
2022-09-27T10:56:30.333Z,15.58
2022-09-27T10:59:00.145Z,15.96
2022-09-27T11:01:29.079Z,16.11
2022-09-27T11:03:59.864Z,16.44
2022-09-27T11:06:38.111Z,16.31
2022-09-27T11:09:20.139Z,16.45
2022-09-27T11:11:48.507Z,17.26
2022-09-27T11:14:24.309Z,17.22
2022-09-27T11:17:09.950Z,17.31
2022-09-27T11:20:09.984Z,17.93
2022-09-27T11:23:00.385Z,18.04
2022-09-27T11:25:35.300Z,18.07
2022-09-27T11:28:08.141Z,18.70
2022-09-27T11:30:41.118Z,18.93
2022-09-27T11:33:22.437Z,18.87
2022-09-27T11:35:57.344Z,19.24
2022-09-27T11:38:52.067Z,18.95
2022-09-27T11:41:37.594Z,19.54
2022-09-27T11:44:22.983Z,19.86
2022-09-27T11:46:54.679Z,20.25
2022-09-27T11:49:41.565Z,20.05
2022-09-27T11:52:19.855Z,20.71
2022-09-27T11:55:01.617Z,20.73
2022-09-27T11:57:34.569Z,20.69
2022-09-27T12:00:18.056Z,20.35
2022-09-27T12:03:21.980Z,20.26
2022-09-27T12:06:06.359Z,20.61
2022-09-27T12:08:54.894Z,20.90
2022-09-27T12:11:28.245Z,21.00
2022-09-27T12:13:58.818Z,21.36
2022-09-27T12:16:27.728Z,21.91
2022-09-27T12:18:56.124Z,21.48
2022-09-27T12:21:25.963Z,21.65
2022-09-27T12:23:57.897Z,21.78
2022-09-27T12:26:32.209Z,21.12
2022-09-27T12:29:04.219Z,21.30
2022-09-27T12:31:36.026Z,21.68
2022-09-27T12:34:17.427Z,21.70
2022-09-27T12:36:51.058Z,22.36
2022-09-27T12:39:22.525Z,22.23
2022-09-27T12:41:56.588Z,21.86
2022-09-27T12:44:24.694Z,21.93
2022-09-27T12:47:01.860Z,20.91
2022-09-27T12:49:39.745Z,20.78
2022-09-27T12:52:12.084Z,21.09
2022-09-27T12:55:05.321Z,21.33
2022-09-27T12:57:42.602Z,21.77
2022-09-27T13:00:14.984Z,22.93
2022-09-27T13:03:15.863Z,23.48
2022-09-27T13:06:20.739Z,31.19
2022-09-27T13:09:25.446Z,35.85
2022-09-27T13:12:01.489Z,38.01
2022-09-27T13:14:34.631Z,38.28
2022-09-27T13:17:02.952Z,38.37
2022-09-27T13:19:45.591Z,37.08
2022-09-27T13:22:37.588Z,37.09
2022-09-27T13:25:54.348Z,37.16
2022-09-27T13:28:35.610Z,37.32
2022-09-27T13:31:06.914Z,37.52
2022-09-27T13:33:43.376Z,37.02
2022-09-27T13:36:21.812Z,37.04
2022-09-27T13:39:20.034Z,36.78
2022-09-27T13:42:08.525Z,36.78
2022-09-27T13:44:48.122Z,36.77
2022-09-27T13:47:26.698Z,36.68
2022-09-27T13:49:59.385Z,37.24
2022-09-27T13:52:33.780Z,37.18
2022-09-27T13:55:03.341Z,37.17
2022-09-27T13:57:48.739Z,36.43
2022-09-27T14:00:20.077Z,37.25
2022-09-27T14:02:58.038Z,36.85
2022-09-27T14:05:29.795Z,36.48
2022-09-27T14:08:02.433Z,36.75
2022-09-27T14:10:30.867Z,37.03
2022-09-27T14:13:01.445Z,36.58
2022-09-27T14:15:30.863Z,36.67
2022-09-27T14:18:00.804Z,36.70
2022-09-27T14:20:40.969Z,35.92
2022-09-27T14:23:17.506Z,36.36
2022-09-27T14:25:47.285Z,36.60
2022-09-27T14:28:22.616Z,35.86
2022-09-27T14:31:06.509Z,35.55
2022-09-27T14:33:37.016Z,36.71
2022-09-27T14:36:25.706Z,36.26
2022-09-27T14:38:53.953Z,36.73
2022-09-27T14:41:22.431Z,36.76
2022-09-27T14:43:51.266Z,36.20
2022-09-27T14:46:27.862Z,35.46
2022-09-27T14:48:59.385Z,36.15
2022-09-27T14:51:30.223Z,35.83
2022-09-27T14:54:01.453Z,36.50
2022-09-27T14:56:32.452Z,36.71
2022-09-27T14:59:04.891Z,36.08
2022-09-27T15:01:35.187Z,36.89
2022-09-27T15:04:13.009Z,36.11
2022-09-27T15:06:41.392Z,37.00
2022-09-27T15:09:14.449Z,36.79
2022-09-27T15:11:43.320Z,36.91
2022-09-27T15:14:14.738Z,36.36
2022-09-27T15:16:43.240Z,36.86
2022-09-27T15:19:19.136Z,36.21
2022-09-27T15:21:47.588Z,36.82
2022-09-27T15:24:37.365Z,35.58
2022-09-27T15:27:08.604Z,36.73
2022-09-27T15:29:37.071Z,36.88
2022-09-27T15:32:06.818Z,36.92
2022-09-27T15:34:37.497Z,36.30
2022-09-27T15:37:06.484Z,36.76
2022-09-27T15:39:36.148Z,36.93
2022-09-27T15:42:07.140Z,37.05
2022-09-27T15:44:41.180Z,36.37
2022-09-27T15:47:40.227Z,35.49
2022-09-27T15:50:36.007Z,35.87
2022-09-27T15:53:07.061Z,37.27
2022-09-27T15:55:37.807Z,36.97
2022-09-27T15:58:08.375Z,36.91
2022-09-27T16:00:37.253Z,36.96
2022-09-27T16:03:05.714Z,37.14
2022-09-27T16:05:35.619Z,36.62
2022-09-27T16:08:04.435Z,36.88
2022-09-27T16:10:37.935Z,36.50
2022-09-27T16:13:06.448Z,37.08
2022-09-27T16:15:34.767Z,37.18
2022-09-27T16:18:03.331Z,37.16
2022-09-27T16:20:32.612Z,36.99
2022-09-27T16:23:02.855Z,36.79
2022-09-27T16:25:31.106Z,37.18
2022-09-27T16:27:59.965Z,37.07
2022-09-27T16:30:28.657Z,37.22
2022-09-27T16:32:57.187Z,37.21
2022-09-27T16:35:26.671Z,37.41
2022-09-27T16:37:54.930Z,37.35
2022-09-27T16:40:26.754Z,36.82
2022-09-27T16:42:55.230Z,36.83
2022-09-27T16:45:23.431Z,37.15
2022-09-27T16:47:51.632Z,37.26
2022-09-27T16:50:37.470Z,38.53
2022-09-27T16:53:06.188Z,37.85
2022-09-27T16:55:36.863Z,37.12
2022-09-27T16:58:05.774Z,37.16
2022-09-27T17:00:34.350Z,37.05
2022-09-27T17:03:02.776Z,37.32
2022-09-27T17:05:32.069Z,36.83
2022-09-27T17:08:00.152Z,37.05
2022-09-27T17:10:28.791Z,36.85
2022-09-27T17:12:58.539Z,37.06
2022-09-27T17:15:27.055Z,36.95
2022-09-27T17:17:55.408Z,37.12
2022-09-27T17:20:23.580Z,36.81
2022-09-27T17:22:51.815Z,37.24
2022-09-27T17:25:20.389Z,36.67
2022-09-27T17:27:49.368Z,36.94
2022-09-27T17:30:21.391Z,36.59
2022-09-27T17:32:49.892Z,36.88
2022-09-27T17:35:18.250Z,36.68
2022-09-27T17:37:46.444Z,36.78
2022-09-27T17:40:16.313Z,37.06
2022-09-27T17:42:44.824Z,36.69
2022-09-27T17:45:12.992Z,36.88
2022-09-27T17:48:00.320Z,36.57
2022-09-27T17:50:29.033Z,36.56
2022-09-27T17:52:58.818Z,36.30
2022-09-27T17:55:27.658Z,36.21
2022-09-27T17:57:56.371Z,36.25
2022-09-27T18:00:24.743Z,36.25
2022-09-27T18:02:54.372Z,36.04
2022-09-27T18:05:22.631Z,36.06
2022-09-27T18:07:51.334Z,35.95
2022-09-27T18:10:20.061Z,36.18
2022-09-27T18:12:48.576Z,35.92
2022-09-27T18:15:21.895Z,36.21
2022-09-27T18:17:57.214Z,35.95
2022-09-27T18:20:27.712Z,35.54
2022-09-27T18:22:56.584Z,35.85
2022-09-27T18:25:25.409Z,36.02
2022-09-27T18:27:55.822Z,35.93
2022-09-27T18:30:25.289Z,36.11
2022-09-27T18:32:54.458Z,35.99
2022-09-27T18:35:24.511Z,36.13
2022-09-27T18:37:54.799Z,35.26
2022-09-27T18:40:38.354Z,35.43
2022-09-27T18:43:11.989Z,35.23
2022-09-27T18:45:40.487Z,35.47
2022-09-27T18:48:08.811Z,35.35
2022-09-27T18:50:37.745Z,35.32
2022-09-27T18:53:09.167Z,35.33
2022-09-27T18:55:38.625Z,34.88
2022-09-27T18:58:07.515Z,35.18
2022-09-27T19:00:35.889Z,35.11
2022-09-27T19:03:04.404Z,35.20
2022-09-27T19:05:32.782Z,35.06
2022-09-27T19:08:01.023Z,35.26
2022-09-27T19:10:30.644Z,34.65
2022-09-27T19:13:01.299Z,34.87
2022-09-27T19:15:29.674Z,35.03
2022-09-27T19:17:57.922Z,34.90
2022-09-27T19:20:26.397Z,35.02
2022-09-27T19:22:54.444Z,35.07
2022-09-27T19:25:22.645Z,35.25
2022-09-27T19:27:52.962Z,34.92
2022-09-27T19:30:21.202Z,34.91
2022-09-27T19:32:49.356Z,34.93
2022-09-27T19:35:18.318Z,35.05
2022-09-27T19:37:46.418Z,34.91
2022-09-27T19:40:14.695Z,34.70
2022-09-27T19:42:43.037Z,34.88
2022-09-27T19:45:13.180Z,34.35
2022-09-27T19:47:41.377Z,34.76
2022-09-27T19:50:10.649Z,34.49
2022-09-27T19:52:39.243Z,34.78
2022-09-27T19:55:08.735Z,35.25
2022-09-27T19:57:37.263Z,35.13
2022-09-27T20:00:06.567Z,35.02
2022-09-27T20:02:36.377Z,34.96
2022-09-27T20:05:05.186Z,35.25
2022-09-27T20:07:35.126Z,35.46
2022-09-27T20:10:04.486Z,35.41
2022-09-27T20:12:32.599Z,35.13
2022-09-27T20:15:00.731Z,35.06
2022-09-27T20:17:33.624Z,34.57
2022-09-27T20:20:03.165Z,34.86
2022-09-27T20:22:31.551Z,35.40
2022-09-27T20:24:59.743Z,35.49
2022-09-27T20:27:27.966Z,35.42
2022-09-27T20:29:57.335Z,35.55
2022-09-27T20:32:29.888Z,35.06
2022-09-27T20:34:58.614Z,36.11
2022-09-27T20:37:28.431Z,36.16
2022-09-27T20:39:56.780Z,36.43
2022-09-27T20:42:25.046Z,36.00
2022-09-27T20:44:54.506Z,35.98
2022-09-27T20:47:23.203Z,36.23
2022-09-27T20:49:51.622Z,36.04
2022-09-27T20:52:19.796Z,36.20
2022-09-27T20:54:49.349Z,35.80
2022-09-27T20:57:27.745Z,35.98
2022-09-27T21:00:03.621Z,36.09
2022-09-27T21:02:32.287Z,36.53
2022-09-27T21:05:00.344Z,36.06
2022-09-27T21:07:28.578Z,35.85
2022-09-27T21:09:58.333Z,35.70
2022-09-27T21:12:26.601Z,35.92
2022-09-27T21:14:54.646Z,35.93
2022-09-27T21:17:24.041Z,35.85
2022-09-27T21:19:52.786Z,35.70
2022-09-27T21:22:21.082Z,36.03
2022-09-27T21:24:49.314Z,36.29
2022-09-27T21:27:18.818Z,35.84
2022-09-27T21:29:47.091Z,35.96
2022-09-27T21:32:15.514Z,36.03
2022-09-27T21:34:43.648Z,36.06
2022-09-27T21:37:11.820Z,35.88
2022-09-27T21:39:40.417Z,35.79
2022-09-27T21:42:08.448Z,35.83
2022-09-27T21:44:37.966Z,35.88
2022-09-27T21:47:06.563Z,36.23
2022-09-27T21:49:35.858Z,36.44
2022-09-27T21:52:04.136Z,36.47
2022-09-27T21:54:32.765Z,36.83
2022-09-27T21:57:02.202Z,36.49
2022-09-27T21:59:30.393Z,36.84
2022-09-27T22:02:00.174Z,36.35
2022-09-27T22:04:28.427Z,36.75
2022-09-27T22:06:56.482Z,36.67
2022-09-27T22:09:24.845Z,36.67
2022-09-27T22:11:53.043Z,36.34
2022-09-27T22:14:21.146Z,36.46
2022-09-27T22:16:49.628Z,36.36
2022-09-27T22:19:19.436Z,36.14
2022-09-27T22:21:47.646Z,36.43
2022-09-27T22:24:17.728Z,36.26
2022-09-27T22:26:48.311Z,36.07
2022-09-27T22:29:17.131Z,36.44
2022-09-27T22:31:45.577Z,36.53
2022-09-27T22:34:18.732Z,36.25
2022-09-27T22:36:48.876Z,36.14
2022-09-27T22:39:17.009Z,36.65
2022-09-27T22:41:45.324Z,36.63
2022-09-27T22:44:13.696Z,36.20
2022-09-27T22:46:41.952Z,36.22
2022-09-27T22:49:10.200Z,36.32
2022-09-27T22:51:38.530Z,36.23
2022-09-27T22:54:08.193Z,35.93
2022-09-27T22:56:36.346Z,36.18
2022-09-27T22:59:04.652Z,36.41
2022-09-27T23:01:32.804Z,36.23
2022-09-27T23:04:00.915Z,36.33
2022-09-27T23:06:29.376Z,36.37
2022-09-27T23:08:58.238Z,36.25
2022-09-27T23:11:27.968Z,36.18
2022-09-27T23:13:56.571Z,36.52
2022-09-27T23:16:25.479Z,36.26
2022-09-27T23:18:54.608Z,36.25
2022-09-27T23:21:26.008Z,36.53
2022-09-27T23:23:55.350Z,34.95
2022-09-27T23:26:26.380Z,36.40
2022-09-27T23:28:56.402Z,36.35
2022-09-27T23:31:25.266Z,36.64
2022-09-27T23:33:54.672Z,36.60
2022-09-27T23:36:25.711Z,36.53
2022-09-27T23:38:55.309Z,36.67
2022-09-27T23:41:23.572Z,36.66
2022-09-27T23:43:51.742Z,36.64
2022-09-27T23:46:21.865Z,36.38
2022-09-27T23:48:49.959Z,36.56
2022-09-27T23:51:20.488Z,36.69
2022-09-27T23:53:48.509Z,36.57
2022-09-27T23:56:17.524Z,36.31
2022-09-27T23:58:46.900Z,36.37
